sensor_id;sensor_type;location;lat;lon;timestamp;P1;P2;P0
73828;PMS7003;62176;48.450;-4.466;2022-09-03T00:00:46;52.75;41.50;26.50
73828;PMS7003;62176;48.450;-4.466;2022-09-03T00:08:27;58.25;44.00;27.50
73828;PMS7003;62176;48.450;-4.466;2022-09-03T00:11:13;55.50;43.50;26.75
73828;PMS7003;62176;48.450;-4.466;2022-09-03T00:13:49;53.50;44.75;27.25
73828;PMS7003;62176;48.450;-4.466;2022-09-03T00:16:22;52.75;42.00;27.00
73828;PMS7003;62176;48.450;-4.466;2022-09-03T00:18:55;50.75;41.75;25.75
73828;PMS7003;62176;48.450;-4.466;2022-09-03T00:24:06;53.00;42.25;27.00
73828;PMS7003;62176;48.450;-4.466;2022-09-03T00:26:34;50.50;41.00;25.75
73828;PMS7003;62176;48.450;-4.466;2022-09-03T00:29:04;56.25;44.25;28.00
73828;PMS7003;62176;48.450;-4.466;2022-09-03T00:31:45;56.00;44.25;28.00
73828;PMS7003;62176;48.450;-4.466;2022-09-03T00:34:18;50.50;42.75;26.25
73828;PMS7003;62176;48.450;-4.466;2022-09-03T00:36:50;50.00;42.25;27.00
73828;PMS7003;62176;48.450;-4.466;2022-09-03T00:39:19;49.25;41.25;27.00
73828;PMS7003;62176;48.450;-4.466;2022-09-03T00:44:52;54.25;44.00;28.00
73828;PMS7003;62176;48.450;-4.466;2022-09-03T01:01:15;52.75;42.00;28.00
73828;PMS7003;62176;48.450;-4.466;2022-09-03T01:09:11;52.00;40.00;27.50
73828;PMS7003;62176;48.450;-4.466;2022-09-03T01:12:14;48.50;40.00;26.00
73828;PMS7003;62176;48.450;-4.466;2022-09-03T01:14:51;47.50;39.00;24.25
73828;PMS7003;62176;48.450;-4.466;2022-09-03T01:31:06;48.00;39.25;25.25
73828;PMS7003;62176;48.450;-4.466;2022-09-03T01:42:04;50.25;38.25;24.00
73828;PMS7003;62176;48.450;-4.466;2022-09-03T01:59:19;47.75;39.25;26.00
73828;PMS7003;62176;48.450;-4.466;2022-09-03T02:01:55;48.75;40.25;25.25
73828;PMS7003;62176;48.450;-4.466;2022-09-03T02:04:26;45.25;36.00;24.00
73828;PMS7003;62176;48.450;-4.466;2022-09-03T02:06:53;45.75;38.75;24.75
73828;PMS7003;62176;48.450;-4.466;2022-09-03T02:09:21;46.00;38.00;24.25
73828;PMS7003;62176;48.450;-4.466;2022-09-03T02:11:52;47.00;38.00;24.75
73828;PMS7003;62176;48.450;-4.466;2022-09-03T02:14:23;45.75;38.00;25.75
73828;PMS7003;62176;48.450;-4.466;2022-09-03T02:16:51;50.00;39.25;26.50
73828;PMS7003;62176;48.450;-4.466;2022-09-03T02:19:18;46.00;38.50;24.50
73828;PMS7003;62176;48.450;-4.466;2022-09-03T02:21:49;47.25;38.25;24.00
73828;PMS7003;62176;48.450;-4.466;2022-09-03T02:24:17;44.75;36.75;24.75
73828;PMS7003;62176;48.450;-4.466;2022-09-03T02:26:42;49.25;40.00;24.75
73828;PMS7003;62176;48.450;-4.466;2022-09-03T02:29:08;43.75;37.50;24.25
73828;PMS7003;62176;48.450;-4.466;2022-09-03T02:31:34;49.50;38.00;26.00
73828;PMS7003;62176;48.450;-4.466;2022-09-03T02:34:00;44.25;36.75;24.75
73828;PMS7003;62176;48.450;-4.466;2022-09-03T02:36:30;48.25;37.75;24.00
73828;PMS7003;62176;48.450;-4.466;2022-09-03T02:39:15;45.50;37.25;24.00
73828;PMS7003;62176;48.450;-4.466;2022-09-03T02:41:40;50.00;42.00;26.00
73828;PMS7003;62176;48.450;-4.466;2022-09-03T02:44:13;44.50;36.25;24.50
73828;PMS7003;62176;48.450;-4.466;2022-09-03T02:46:45;47.25;37.00;25.75
73828;PMS7003;62176;48.450;-4.466;2022-09-03T02:49:15;45.00;35.75;24.00
73828;PMS7003;62176;48.450;-4.466;2022-09-03T02:51:41;43.75;35.25;24.00
73828;PMS7003;62176;48.450;-4.466;2022-09-03T02:54:08;44.25;38.50;25.00
73828;PMS7003;62176;48.450;-4.466;2022-09-03T02:56:34;46.50;37.50;24.00
73828;PMS7003;62176;48.450;-4.466;2022-09-03T02:59:00;44.75;36.50;25.25
73828;PMS7003;62176;48.450;-4.466;2022-09-03T03:01:27;41.25;35.00;22.50
73828;PMS7003;62176;48.450;-4.466;2022-09-03T03:03:53;41.50;34.75;23.25
73828;PMS7003;62176;48.450;-4.466;2022-09-03T03:06:18;45.00;38.00;24.00
73828;PMS7003;62176;48.450;-4.466;2022-09-03T03:08:45;42.25;33.00;24.00
73828;PMS7003;62176;48.450;-4.466;2022-09-03T03:11:11;40.00;35.50;24.00
73828;PMS7003;62176;48.450;-4.466;2022-09-03T03:13:42;40.00;35.00;24.00
73828;PMS7003;62176;48.450;-4.466;2022-09-03T03:16:08;46.00;36.50;23.00
73828;PMS7003;62176;48.450;-4.466;2022-09-03T03:18:35;35.75;32.00;22.00
73828;PMS7003;62176;48.450;-4.466;2022-09-03T03:21:18;37.50;34.25;23.50
73828;PMS7003;62176;48.450;-4.466;2022-09-03T03:23:44;38.25;32.75;23.00
73828;PMS7003;62176;48.450;-4.466;2022-09-03T03:26:11;43.00;35.50;23.00
73828;PMS7003;62176;48.450;-4.466;2022-09-03T03:28:38;46.50;38.00;24.25
73828;PMS7003;62176;48.450;-4.466;2022-09-03T03:31:13;40.50;34.00;23.00
73828;PMS7003;62176;48.450;-4.466;2022-09-03T03:33:41;45.50;37.00;24.00
73828;PMS7003;62176;48.450;-4.466;2022-09-03T03:36:12;39.75;33.75;24.00
73828;PMS7003;62176;48.450;-4.466;2022-09-03T03:38:39;41.50;34.00;23.00
73828;PMS7003;62176;48.450;-4.466;2022-09-03T03:41:09;46.75;35.75;23.00
73828;PMS7003;62176;48.450;-4.466;2022-09-03T03:43:40;38.00;35.00;23.75
73828;PMS7003;62176;48.450;-4.466;2022-09-03T03:46:05;36.75;33.25;22.75
73828;PMS7003;62176;48.450;-4.466;2022-09-03T03:48:31;41.25;35.25;23.25
73828;PMS7003;62176;48.450;-4.466;2022-09-03T03:51:00;44.25;36.25;23.00
73828;PMS7003;62176;48.450;-4.466;2022-09-03T03:53:28;40.25;35.25;24.00
73828;PMS7003;62176;48.450;-4.466;2022-09-03T03:55:58;44.75;35.50;23.00
73828;PMS7003;62176;48.450;-4.466;2022-09-03T03:58:26;38.50;32.50;22.75
73828;PMS7003;62176;48.450;-4.466;2022-09-03T04:00:52;38.75;32.75;23.00
73828;PMS7003;62176;48.450;-4.466;2022-09-03T04:03:18;37.00;32.50;21.75
73828;PMS7003;62176;48.450;-4.466;2022-09-03T04:05:57;34.25;32.25;22.00
73828;PMS7003;62176;48.450;-4.466;2022-09-03T04:08:23;40.25;31.50;22.00
73828;PMS7003;62176;48.450;-4.466;2022-09-03T04:10:49;31.50;29.50;20.00
73828;PMS7003;62176;48.450;-4.466;2022-09-03T04:13:15;36.00;32.75;22.75
73828;PMS7003;62176;48.450;-4.466;2022-09-03T04:15:41;33.75;30.00;21.00
73828;PMS7003;62176;48.450;-4.466;2022-09-03T04:18:06;34.25;32.00;22.00
73828;PMS7003;62176;48.450;-4.466;2022-09-03T04:20:32;25.00;24.75;18.00
73828;PMS7003;62176;48.450;-4.466;2022-09-03T04:23:00;29.00;27.50;19.75
73828;PMS7003;62176;48.450;-4.466;2022-09-03T04:25:25;30.00;29.25;21.50
73828;PMS7003;62176;48.450;-4.466;2022-09-03T04:27:51;33.00;30.00;20.00
73828;PMS7003;62176;48.450;-4.466;2022-09-03T04:30:16;26.75;25.50;18.75
73828;PMS7003;62176;48.450;-4.466;2022-09-03T04:32:42;33.50;30.00;20.00
73828;PMS7003;62176;48.450;-4.466;2022-09-03T04:35:17;30.00;27.50;19.75
73828;PMS7003;62176;48.450;-4.466;2022-09-03T04:37:44;31.00;29.75;21.50
73828;PMS7003;62176;48.450;-4.466;2022-09-03T04:40:10;29.50;27.00;19.00
73828;PMS7003;62176;48.450;-4.466;2022-09-03T04:42:36;28.75;26.00;20.00
73828;PMS7003;62176;48.450;-4.466;2022-09-03T04:45:01;29.25;26.75;19.00
73828;PMS7003;62176;48.450;-4.466;2022-09-03T04:47:26;29.50;24.75;18.50
73828;PMS7003;62176;48.450;-4.466;2022-09-03T04:49:52;27.00;24.50;18.00
73828;PMS7003;62176;48.450;-4.466;2022-09-03T04:52:18;29.25;25.00;18.50
73828;PMS7003;62176;48.450;-4.466;2022-09-03T04:54:44;24.75;23.25;18.00
73828;PMS7003;62176;48.450;-4.466;2022-09-03T04:57:10;20.50;18.00;13.50
73828;PMS7003;62176;48.450;-4.466;2022-09-03T04:59:35;27.50;24.25;17.25
73828;PMS7003;62176;48.450;-4.466;2022-09-03T05:02:01;19.00;18.50;15.00
73828;PMS7003;62176;48.450;-4.466;2022-09-03T05:04:26;19.75;19.50;15.00
73828;PMS7003;62176;48.450;-4.466;2022-09-03T05:06:52;25.75;22.00;15.00
73828;PMS7003;62176;48.450;-4.466;2022-09-03T05:09:18;25.00;24.50;18.50
73828;PMS7003;62176;48.450;-4.466;2022-09-03T05:11:43;23.00;19.25;15.25
73828;PMS7003;62176;48.450;-4.466;2022-09-03T05:14:09;18.75;18.25;13.00
73828;PMS7003;62176;48.450;-4.466;2022-09-03T05:16:36;19.00;17.50;13.00
73828;PMS7003;62176;48.450;-4.466;2022-09-03T05:19:02;17.75;16.00;13.00
73828;PMS7003;62176;48.450;-4.466;2022-09-03T05:21:29;19.50;15.75;12.00
73828;PMS7003;62176;48.450;-4.466;2022-09-03T05:23:56;18.50;16.75;13.00
73828;PMS7003;62176;48.450;-4.466;2022-09-03T05:26:23;15.50;14.50;11.50
73828;PMS7003;62176;48.450;-4.466;2022-09-03T05:28:53;17.75;16.00;12.25
73828;PMS7003;62176;48.450;-4.466;2022-09-03T05:31:21;16.75;15.00;11.75
73828;PMS7003;62176;48.450;-4.466;2022-09-03T05:33:48;14.50;13.75;12.25
73828;PMS7003;62176;48.450;-4.466;2022-09-03T05:36:16;19.00;16.00;12.50
73828;PMS7003;62176;48.450;-4.466;2022-09-03T05:38:43;15.75;14.00;10.00
73828;PMS7003;62176;48.450;-4.466;2022-09-03T05:41:10;15.25;15.00;11.00
73828;PMS7003;62176;48.450;-4.466;2022-09-03T05:43:37;13.00;13.00;9.50
73828;PMS7003;62176;48.450;-4.466;2022-09-03T05:46:07;14.00;14.00;11.00
73828;PMS7003;62176;48.450;-4.466;2022-09-03T05:48:38;13.50;13.50;10.50
73828;PMS7003;62176;48.450;-4.466;2022-09-03T05:51:08;15.50;14.25;10.00
73828;PMS7003;62176;48.450;-4.466;2022-09-03T05:53:36;12.50;12.50;10.00
73828;PMS7003;62176;48.450;-4.466;2022-09-03T05:56:04;13.50;12.50;9.75
73828;PMS7003;62176;48.450;-4.466;2022-09-03T05:58:51;11.25;10.75;9.00
73828;PMS7003;62176;48.450;-4.466;2022-09-03T06:01:21;10.50;10.25;8.00
73828;PMS7003;62176;48.450;-4.466;2022-09-03T06:03:56;12.00;11.50;9.00
73828;PMS7003;62176;48.450;-4.466;2022-09-03T06:06:30;9.25;9.25;7.50
73828;PMS7003;62176;48.450;-4.466;2022-09-03T06:09:07;10.50;9.00;7.50
73828;PMS7003;62176;48.450;-4.466;2022-09-03T06:11:35;9.00;9.00;7.25
73828;PMS7003;62176;48.450;-4.466;2022-09-03T06:14:02;8.50;8.50;6.75
73828;PMS7003;62176;48.450;-4.466;2022-09-03T06:16:30;9.25;8.25;7.00
73828;PMS7003;62176;48.450;-4.466;2022-09-03T06:18:57;8.50;7.25;6.00
73828;PMS7003;62176;48.450;-4.466;2022-09-03T06:21:26;7.25;7.25;6.00
73828;PMS7003;62176;48.450;-4.466;2022-09-03T06:23:52;8.50;8.00;5.00
73828;PMS7003;62176;48.450;-4.466;2022-09-03T06:26:21;6.75;5.50;4.50
73828;PMS7003;62176;48.450;-4.466;2022-09-03T06:28:47;7.25;5.75;4.25
73828;PMS7003;62176;48.450;-4.466;2022-09-03T06:31:17;9.00;8.00;6.00
73828;PMS7003;62176;48.450;-4.466;2022-09-03T06:33:44;8.00;6.50;5.50
73828;PMS7003;62176;48.450;-4.466;2022-09-03T06:36:20;9.25;8.00;6.00
73828;PMS7003;62176;48.450;-4.466;2022-09-03T06:38:47;6.50;6.50;5.25
73828;PMS7003;62176;48.450;-4.466;2022-09-03T06:41:18;5.75;5.75;5.00
73828;PMS7003;62176;48.450;-4.466;2022-09-03T06:43:45;8.75;7.50;6.25
73828;PMS7003;62176;48.450;-4.466;2022-09-03T06:46:15;7.00;5.25;4.75
73828;PMS7003;62176;48.450;-4.466;2022-09-03T06:48:43;6.00;5.00;4.00
73828;PMS7003;62176;48.450;-4.466;2022-09-03T06:51:10;4.75;4.75;4.00
73828;PMS7003;62176;48.450;-4.466;2022-09-03T06:53:44;5.00;5.00;4.25
73828;PMS7003;62176;48.450;-4.466;2022-09-03T06:56:12;6.00;5.00;5.00
73828;PMS7003;62176;48.450;-4.466;2022-09-03T06:58:49;6.75;6.50;5.50
73828;PMS7003;62176;48.450;-4.466;2022-09-03T07:01:16;5.00;5.00;4.50
73828;PMS7003;62176;48.450;-4.466;2022-09-03T07:03:43;8.25;6.00;5.00
73828;PMS7003;62176;48.450;-4.466;2022-09-03T07:08:41;7.25;6.00;5.00
73828;PMS7003;62176;48.450;-4.466;2022-09-03T07:11:09;5.50;5.00;4.00
73828;PMS7003;62176;48.450;-4.466;2022-09-03T07:13:43;6.00;4.50;4.00
73828;PMS7003;62176;48.450;-4.466;2022-09-03T07:16:11;6.25;6.00;5.00
73828;PMS7003;62176;48.450;-4.466;2022-09-03T07:18:42;7.50;6.00;4.75
73828;PMS7003;62176;48.450;-4.466;2022-09-03T07:21:09;6.00;6.00;4.50
73828;PMS7003;62176;48.450;-4.466;2022-09-03T07:23:37;5.00;5.00;4.25
73828;PMS7003;62176;48.450;-4.466;2022-09-03T07:26:03;4.75;4.75;4.00
73828;PMS7003;62176;48.450;-4.466;2022-09-03T07:28:31;8.00;5.50;4.25
73828;PMS7003;62176;48.450;-4.466;2022-09-03T07:31:06;5.25;4.50;4.00
73828;PMS7003;62176;48.450;-4.466;2022-09-03T07:33:36;5.00;5.00;4.00
73828;PMS7003;62176;48.450;-4.466;2022-09-03T07:36:06;5.00;5.00;4.25
73828;PMS7003;62176;48.450;-4.466;2022-09-03T07:38:33;4.00;4.00;3.75
73828;PMS7003;62176;48.450;-4.466;2022-09-03T07:41:00;5.25;5.25;5.00
73828;PMS7003;62176;48.450;-4.466;2022-09-03T07:43:29;5.00;4.50;3.50
73828;PMS7003;62176;48.450;-4.466;2022-09-03T07:45:58;5.25;5.25;4.00
73828;PMS7003;62176;48.450;-4.466;2022-09-03T07:48:25;6.00;4.00;4.00
73828;PMS7003;62176;48.450;-4.466;2022-09-03T07:50:50;6.00;6.00;5.00
73828;PMS7003;62176;48.450;-4.466;2022-09-03T07:53:17;5.00;5.00;3.00
73828;PMS7003;62176;48.450;-4.466;2022-09-03T07:55:46;7.00;6.25;5.00
73828;PMS7003;62176;48.450;-4.466;2022-09-03T07:58:12;5.50;4.00;4.00
73828;PMS7003;62176;48.450;-4.466;2022-09-03T08:00:38;5.00;5.00;4.00
73828;PMS7003;62176;48.450;-4.466;2022-09-03T08:03:04;4.00;4.00;3.00
73828;PMS7003;62176;48.450;-4.466;2022-09-03T08:05:32;4.25;3.75;2.25
73828;PMS7003;62176;48.450;-4.466;2022-09-03T08:08:00;4.75;4.25;4.00
73828;PMS7003;62176;48.450;-4.466;2022-09-03T08:10:29;6.75;5.25;4.00
73828;PMS7003;62176;48.450;-4.466;2022-09-03T08:12:58;2.50;2.25;2.00
73828;PMS7003;62176;48.450;-4.466;2022-09-03T08:15:24;4.00;4.00;3.00
73828;PMS7003;62176;48.450;-4.466;2022-09-03T08:17:50;4.00;4.00;4.00
73828;PMS7003;62176;48.450;-4.466;2022-09-03T08:20:17;4.75;4.75;3.00
73828;PMS7003;62176;48.450;-4.466;2022-09-03T08:22:43;4.50;4.50;4.00
73828;PMS7003;62176;48.450;-4.466;2022-09-03T08:25:08;4.50;3.75;3.00
73828;PMS7003;62176;48.450;-4.466;2022-09-03T08:27:34;5.00;4.25;3.50
73828;PMS7003;62176;48.450;-4.466;2022-09-03T08:29:59;3.50;3.50;2.50
73828;PMS7003;62176;48.450;-4.466;2022-09-03T08:32:25;3.75;3.00;3.00
73828;PMS7003;62176;48.450;-4.466;2022-09-03T08:34:51;5.25;4.00;3.00
73828;PMS7003;62176;48.450;-4.466;2022-09-03T08:37:17;4.25;3.00;2.50
73828;PMS7003;62176;48.450;-4.466;2022-09-03T08:39:43;4.00;4.00;3.50
73828;PMS7003;62176;48.450;-4.466;2022-09-03T08:42:26;2.75;2.75;2.25
73828;PMS7003;62176;48.450;-4.466;2022-09-03T08:44:58;3.25;3.00;2.75
73828;PMS7003;62176;48.450;-4.466;2022-09-03T08:50:09;4.50;3.25;2.00
73828;PMS7003;62176;48.450;-4.466;2022-09-03T08:53:31;5.00;4.00;3.50
73828;PMS7003;62176;48.450;-4.466;2022-09-03T08:55:52;2.00;2.00;2.00
73828;PMS7003;62176;48.450;-4.466;2022-09-03T08:58:22;5.00;4.00;3.50
73828;PMS7003;62176;48.450;-4.466;2022-09-03T09:00:58;3.00;3.00;2.00
73828;PMS7003;62176;48.450;-4.466;2022-09-03T09:06:13;2.25;2.25;1.75
73828;PMS7003;62176;48.450;-4.466;2022-09-03T09:14:19;2.00;2.00;2.00
73828;PMS7003;62176;48.450;-4.466;2022-09-03T09:22:33;3.00;3.00;2.50
73828;PMS7003;62176;48.450;-4.466;2022-09-03T09:25:07;3.00;3.00;2.00
73828;PMS7003;62176;48.450;-4.466;2022-09-03T09:27:40;1.75;1.75;1.50
73828;PMS7003;62176;48.450;-4.466;2022-09-03T09:30:20;2.00;2.00;1.50
73828;PMS7003;62176;48.450;-4.466;2022-09-03T09:32:46;2.25;2.25;1.50
73828;PMS7003;62176;48.450;-4.466;2022-09-03T09:35:12;3.50;1.75;1.50
73828;PMS7003;62176;48.450;-4.466;2022-09-03T09:37:52;3.75;1.50;1.25
73828;PMS7003;62176;48.450;-4.466;2022-09-03T09:43:09;3.50;2.25;1.50
73828;PMS7003;62176;48.450;-4.466;2022-09-03T09:45:45;2.25;1.00;1.00
73828;PMS7003;62176;48.450;-4.466;2022-09-03T09:48:22;2.00;2.00;1.00
73828;PMS7003;62176;48.450;-4.466;2022-09-03T09:51:05;1.25;1.25;0.75
73828;PMS7003;62176;48.450;-4.466;2022-09-03T09:53:38;1.25;1.25;1.00
73828;PMS7003;62176;48.450;-4.466;2022-09-03T09:56:05;1.50;1.50;1.00
73828;PMS7003;62176;48.450;-4.466;2022-09-03T09:58:31;1.00;1.00;1.00
73828;PMS7003;62176;48.450;-4.466;2022-09-03T10:01:00;1.25;1.25;1.00
73828;PMS7003;62176;48.450;-4.466;2022-09-03T10:03:27;1.25;1.25;1.00
73828;PMS7003;62176;48.450;-4.466;2022-09-03T10:06:03;1.00;1.00;1.00
73828;PMS7003;62176;48.450;-4.466;2022-09-03T10:09:04;1.75;1.75;1.75
73828;PMS7003;62176;48.450;-4.466;2022-09-03T10:11:35;5.50;2.00;2.00
73828;PMS7003;62176;48.450;-4.466;2022-09-03T10:14:26;1.25;1.25;1.00
73828;PMS7003;62176;48.450;-4.466;2022-09-03T10:17:21;1.50;1.50;1.25
73828;PMS7003;62176;48.450;-4.466;2022-09-03T10:25:54;1.00;0.50;0.00
73828;PMS7003;62176;48.450;-4.466;2022-09-03T10:28:34;2.00;2.00;1.25
73828;PMS7003;62176;48.450;-4.466;2022-09-03T10:33:43;4.75;2.00;2.00
73828;PMS7003;62176;48.450;-4.466;2022-09-03T10:38:45;5.75;3.75;3.00
73828;PMS7003;62176;48.450;-4.466;2022-09-03T10:47:19;4.50;2.75;2.75
73828;PMS7003;62176;48.450;-4.466;2022-09-03T10:55:20;2.75;2.75;1.75
73828;PMS7003;62176;48.450;-4.466;2022-09-03T10:58:22;2.25;1.50;1.00
73828;PMS7003;62176;48.450;-4.466;2022-09-03T11:01:09;2.00;1.25;1.25
73828;PMS7003;62176;48.450;-4.466;2022-09-03T11:06:43;1.00;1.00;1.00
73828;PMS7003;62176;48.450;-4.466;2022-09-03T11:11:46;2.75;2.75;1.75
73828;PMS7003;62176;48.450;-4.466;2022-09-03T11:14:39;3.00;2.00;2.00
73828;PMS7003;62176;48.450;-4.466;2022-09-03T11:17:11;1.25;1.25;1.00
73828;PMS7003;62176;48.450;-4.466;2022-09-03T11:19:48;4.75;3.25;2.50
73828;PMS7003;62176;48.450;-4.466;2022-09-03T11:22:18;4.00;2.25;1.50
73828;PMS7003;62176;48.450;-4.466;2022-09-03T11:24:49;1.75;1.75;1.75
73828;PMS7003;62176;48.450;-4.466;2022-09-03T11:29:59;8.25;2.50;2.25
73828;PMS7003;62176;48.450;-4.466;2022-09-03T11:35:11;4.00;2.25;1.75
73828;PMS7003;62176;48.450;-4.466;2022-09-03T11:37:44;2.00;2.00;1.50
73828;PMS7003;62176;48.450;-4.466;2022-09-03T11:40:18;6.00;3.00;2.25
73828;PMS7003;62176;48.450;-4.466;2022-09-03T11:42:46;2.00;2.00;1.75
73828;PMS7003;62176;48.450;-4.466;2022-09-03T11:47:44;2.25;2.25;1.50
73828;PMS7003;62176;48.450;-4.466;2022-09-03T11:50:24;2.50;2.00;1.00
73828;PMS7003;62176;48.450;-4.466;2022-09-03T11:53:06;2.00;2.00;1.00
73828;PMS7003;62176;48.450;-4.466;2022-09-03T11:55:46;2.00;2.00;1.00
73828;PMS7003;62176;48.450;-4.466;2022-09-03T12:00:51;2.50;2.50;2.00
73828;PMS7003;62176;48.450;-4.466;2022-09-03T12:03:20;2.25;2.25;2.00
73828;PMS7003;62176;48.450;-4.466;2022-09-03T12:16:56;3.00;1.00;1.00
73828;PMS7003;62176;48.450;-4.466;2022-09-03T12:19:49;2.75;2.75;2.00
73828;PMS7003;62176;48.450;-4.466;2022-09-03T12:22:18;4.00;3.00;2.25
73828;PMS7003;62176;48.450;-4.466;2022-09-03T12:24:45;5.00;3.00;2.00
73828;PMS7003;62176;48.450;-4.466;2022-09-03T12:27:11;3.00;2.00;1.75
73828;PMS7003;62176;48.450;-4.466;2022-09-03T12:29:58;6.25;2.00;2.00
73828;PMS7003;62176;48.450;-4.466;2022-09-03T12:32:26;1.00;1.00;1.00
73828;PMS7003;62176;48.450;-4.466;2022-09-03T12:34:56;2.00;2.00;1.75
73828;PMS7003;62176;48.450;-4.466;2022-09-03T12:37:23;4.50;3.00;2.00
73828;PMS7003;62176;48.450;-4.466;2022-09-03T12:39:53;0.00;0.00;0.00
73828;PMS7003;62176;48.450;-4.466;2022-09-03T12:42:27;3.50;2.00;2.00
73828;PMS7003;62176;48.450;-4.466;2022-09-03T12:44:55;2.50;2.00;1.50
73828;PMS7003;62176;48.450;-4.466;2022-09-03T12:47:29;3.25;2.00;1.50
73828;PMS7003;62176;48.450;-4.466;2022-09-03T12:50:03;5.25;2.25;1.50
73828;PMS7003;62176;48.450;-4.466;2022-09-03T12:53:04;3.50;3.00;2.00
73828;PMS7003;62176;48.450;-4.466;2022-09-03T12:57:53;2.25;1.00;1.00
73828;PMS7003;62176;48.450;-4.466;2022-09-03T13:00:36;3.00;3.00;2.00
73828;PMS7003;62176;48.450;-4.466;2022-09-03T13:05:36;3.00;2.00;2.00
73828;PMS7003;62176;48.450;-4.466;2022-09-03T13:08:13;3.00;2.00;1.75
73828;PMS7003;62176;48.450;-4.466;2022-09-03T13:10:48;2.50;2.00;1.50
73828;PMS7003;62176;48.450;-4.466;2022-09-03T13:13:21;1.00;1.00;1.00
73828;PMS7003;62176;48.450;-4.466;2022-09-03T13:19:04;3.00;2.00;1.75
73828;PMS7003;62176;48.450;-4.466;2022-09-03T13:24:52;3.25;3.25;2.25
73828;PMS7003;62176;48.450;-4.466;2022-09-03T13:30:21;1.50;1.50;1.00
73828;PMS7003;62176;48.450;-4.466;2022-09-03T13:33:00;2.25;2.25;1.50
73828;PMS7003;62176;48.450;-4.466;2022-09-03T13:35:39;3.50;2.00;2.00
73828;PMS7003;62176;48.450;-4.466;2022-09-03T13:41:25;3.00;2.50;2.00
73828;PMS7003;62176;48.450;-4.466;2022-09-03T13:43:50;3.25;2.00;2.00
73828;PMS7003;62176;48.450;-4.466;2022-09-03T13:46:35;4.75;3.75;2.00
73828;PMS7003;62176;48.450;-4.466;2022-09-03T13:49:16;3.00;3.00;2.50
73828;PMS7003;62176;48.450;-4.466;2022-09-03T13:52:38;2.75;2.75;2.00
73828;PMS7003;62176;48.450;-4.466;2022-09-03T13:55:16;3.75;1.50;1.00
73828;PMS7003;62176;48.450;-4.466;2022-09-03T13:58:04;2.50;2.50;2.00
73828;PMS7003;62176;48.450;-4.466;2022-09-03T14:00:48;4.00;2.75;2.00
73828;PMS7003;62176;48.450;-4.466;2022-09-03T14:06:29;3.00;2.00;2.00
73828;PMS7003;62176;48.450;-4.466;2022-09-03T14:14:22;1.00;0.00;0.00
73828;PMS7003;62176;48.450;-4.466;2022-09-03T14:25:54;2.75;2.00;1.25
73828;PMS7003;62176;48.450;-4.466;2022-09-03T14:28:37;2.00;2.00;1.25
73828;PMS7003;62176;48.450;-4.466;2022-09-03T14:34:14;4.00;2.25;2.25
73828;PMS7003;62176;48.450;-4.466;2022-09-03T15:01:33;3.00;2.00;2.00
73828;PMS7003;62176;48.450;-4.466;2022-09-03T15:12:47;3.00;3.00;3.00
73828;PMS7003;62176;48.450;-4.466;2022-09-03T15:15:17;5.50;3.25;3.00
73828;PMS7003;62176;48.450;-4.466;2022-09-03T15:36:18;3.50;1.25;1.00
73828;PMS7003;62176;48.450;-4.466;2022-09-03T15:38:48;3.00;3.00;2.00
73828;PMS7003;62176;48.450;-4.466;2022-09-03T15:41:35;0.25;0.25;0.25
73828;PMS7003;62176;48.450;-4.466;2022-09-03T15:44:24;3.00;1.25;1.00
73828;PMS7003;62176;48.450;-4.466;2022-09-03T15:46:58;2.50;2.50;2.00
73828;PMS7003;62176;48.450;-4.466;2022-09-03T15:55:08;3.00;2.00;2.00
73828;PMS7003;62176;48.450;-4.466;2022-09-03T16:00:16;4.75;3.00;2.00
73828;PMS7003;62176;48.450;-4.466;2022-09-03T16:05:47;4.50;3.00;2.00
73828;PMS7003;62176;48.450;-4.466;2022-09-03T16:08:40;1.25;1.25;1.00
73828;PMS7003;62176;48.450;-4.466;2022-09-03T16:21:45;2.25;2.25;2.00
73828;PMS7003;62176;48.450;-4.466;2022-09-03T16:24:19;3.00;2.00;1.75
73828;PMS7003;62176;48.450;-4.466;2022-09-03T16:26:50;3.75;1.75;1.50
73828;PMS7003;62176;48.450;-4.466;2022-09-03T16:29:27;4.25;3.00;2.25
73828;PMS7003;62176;48.450;-4.466;2022-09-03T16:53:37;3.75;2.50;2.00
73828;PMS7003;62176;48.450;-4.466;2022-09-03T17:21:47;3.00;2.00;2.00
73828;PMS7003;62176;48.450;-4.466;2022-09-03T17:24:33;5.25;4.00;3.00
73828;PMS7003;62176;48.450;-4.466;2022-09-03T17:27:55;2.50;2.00;2.00
73828;PMS7003;62176;48.450;-4.466;2022-09-03T17:30:24;3.25;3.00;2.25
73828;PMS7003;62176;48.450;-4.466;2022-09-03T17:33:13;4.50;3.75;3.00
73828;PMS7003;62176;48.450;-4.466;2022-09-03T17:38:42;1.00;1.00;1.00
73828;PMS7003;62176;48.450;-4.466;2022-09-03T17:49:53;6.25;4.75;2.75
73828;PMS7003;62176;48.450;-4.466;2022-09-03T17:52:59;3.75;3.25;2.25
73828;PMS7003;62176;48.450;-4.466;2022-09-03T17:57:58;3.50;3.00;2.50
73828;PMS7003;62176;48.450;-4.466;2022-09-03T18:00:37;3.25;2.25;2.00
73828;PMS7003;62176;48.450;-4.466;2022-09-03T18:03:12;5.00;3.50;2.25
73828;PMS7003;62176;48.450;-4.466;2022-09-03T18:05:45;6.25;3.75;2.50
73828;PMS7003;62176;48.450;-4.466;2022-09-03T18:11:11;6.00;4.00;2.75
73828;PMS7003;62176;48.450;-4.466;2022-09-03T18:13:47;6.50;5.00;2.00
73828;PMS7003;62176;48.450;-4.466;2022-09-03T18:18:49;3.75;2.00;2.00
73828;PMS7003;62176;48.450;-4.466;2022-09-03T18:21:19;4.50;3.75;3.00
73828;PMS7003;62176;48.450;-4.466;2022-09-03T18:24:10;4.00;4.00;2.75
73828;PMS7003;62176;48.450;-4.466;2022-09-03T18:30:22;4.00;4.00;2.75
73828;PMS7003;62176;48.450;-4.466;2022-09-03T18:33:07;3.50;3.50;2.25
73828;PMS7003;62176;48.450;-4.466;2022-09-03T18:35:51;7.00;6.00;2.25
73828;PMS7003;62176;48.450;-4.466;2022-09-03T18:38:36;4.50;3.25;2.75
73828;PMS7003;62176;48.450;-4.466;2022-09-03T18:44:18;4.00;4.00;3.00
73828;PMS7003;62176;48.450;-4.466;2022-09-03T18:47:06;4.00;2.75;1.75
73828;PMS7003;62176;48.450;-4.466;2022-09-03T19:08:56;6.50;4.00;3.00
73828;PMS7003;62176;48.450;-4.466;2022-09-03T19:12:11;3.50;3.50;2.75
73828;PMS7003;62176;48.450;-4.466;2022-09-03T19:14:59;5.75;4.00;3.00
73828;PMS7003;62176;48.450;-4.466;2022-09-03T19:18:15;7.75;5.00;3.25
73828;PMS7003;62176;48.450;-4.466;2022-09-03T19:23:58;5.50;3.00;2.75
73828;PMS7003;62176;48.450;-4.466;2022-09-03T19:27:28;4.00;2.50;2.00
73828;PMS7003;62176;48.450;-4.466;2022-09-03T19:35:45;6.50;6.50;4.00
73828;PMS7003;62176;48.450;-4.466;2022-09-03T19:42:02;5.00;4.00;3.75
73828;PMS7003;62176;48.450;-4.466;2022-09-03T19:51:28;7.25;4.50;3.00
73828;PMS7003;62176;48.450;-4.466;2022-09-03T19:54:17;6.50;3.75;2.25
73828;PMS7003;62176;48.450;-4.466;2022-09-03T19:57:05;5.50;4.00;3.00
73828;PMS7003;62176;48.450;-4.466;2022-09-03T19:59:53;6.00;4.00;1.00
73828;PMS7003;62176;48.450;-4.466;2022-09-03T20:02:39;8.50;4.00;3.25
73828;PMS7003;62176;48.450;-4.466;2022-09-03T20:05:24;7.00;6.75;3.25
73828;PMS7003;62176;48.450;-4.466;2022-09-03T20:08:08;7.75;5.00;4.00
73828;PMS7003;62176;48.450;-4.466;2022-09-03T20:10:58;7.50;6.75;4.00
73828;PMS7003;62176;48.450;-4.466;2022-09-03T20:13:25;8.75;4.00;2.75
73828;PMS7003;62176;48.450;-4.466;2022-09-03T20:30:01;5.50;5.25;2.50
73828;PMS7003;62176;48.450;-4.466;2022-09-03T20:32:32;6.75;4.75;3.25
73828;PMS7003;62176;48.450;-4.466;2022-09-03T20:42:59;8.00;5.50;3.75
73828;PMS7003;62176;48.450;-4.466;2022-09-03T20:48:18;8.00;5.25;3.50
73828;PMS7003;62176;48.450;-4.466;2022-09-03T20:57:15;6.50;6.50;4.25
73828;PMS7003;62176;48.450;-4.466;2022-09-03T21:05:19;8.25;6.75;4.50
73828;PMS7003;62176;48.450;-4.466;2022-09-03T21:10:33;8.25;7.25;3.75